Terminal Aerodrome Forecast
Issued by NWS Northern Indiana

Home | Current Version | Previous Version | Text Only | Print | Product List | Glossary On
Versions: 1 2 3 4 5 6 7 8 9 10 11 12 13 14
849
FTUS43 KIWX 141120
TAFFWA
TAF
KFWA 141120Z 1412/1512 VRB04KT P6SM FEW030 BKN250
     FM141400 12010KT P6SM SCT100 OVC200
     FM142000 11012KT 3SM -SN OVC040
     FM142200 11012KT 1 1/2SM -SN OVC015
     FM150400 13009KT 3SM -SHSN SCT010 OVC020=

USA.gov is the U.S. government's official web portal to all federal, state and local government web resources and services.